Time;durP1;ratioP1;P1;durP2;ratioP2;P2;SDS_P1;SDS_P2;PMS_P1;PMS_P2;Temp;Humidity;BMP_temperature;BMP_pressure;BME280_temperature;BME280_humidity;BME280_pressure;Samples;Min_cycle;Max_cycle;Signal;HPM_P1;HPM_P2
2023/04/17 00:02:25;;;;;;;61.38;33.75;;;;;;;;;;4888485;28;99248;-78
2023/04/17 00:04:52;;;;;;;53.67;30.90;;;;;;;;;;4892722;28;100119;-78
2023/04/17 00:07:21;;;;;;;57.45;32.35;;;;;;;;;;4889069;28;100141;-78
2023/04/17 00:09:47;;;;;;;61.17;33.47;;;;;;;;;;4888330;28;101167;-79
2023/04/17 00:12:14;;;;;;;59.22;33.08;;;;;;;;;;4888941;28;99929;-79
2023/04/17 00:14:40;;;;;;;54.67;32.03;;;;;;;;;;4889026;28;99555;-79
2023/04/17 00:17:07;;;;;;;48.38;29.95;;;;;;;;;;4888378;28;101551;-79
2023/04/17 00:19:33;;;;;;;53.20;31.67;;;;;;;;;;4889510;28;100136;-78
2023/04/17 00:21:59;;;;;;;49.63;31.90;;;;;;;;;;4890932;28;100241;-78
2023/04/17 00:24:26;;;;;;;49.05;29.40;;;;;;;;;;4888873;28;99598;-79
2023/04/17 00:26:52;;;;;;;42.35;27.00;;;;;;;;;;4893431;28;99926;-78
2023/04/17 00:29:19;;;;;;;45.65;29.63;;;;;;;;;;4888876;28;99686;-78
2023/04/17 00:31:45;;;;;;;38.13;27.40;;;;;;;;;;4891003;28;100459;-79
2023/04/17 00:34:12;;;;;;;45.78;25.35;;;;;;;;;;4889467;28;98525;-78
2023/04/17 00:36:38;;;;;;;39.95;24.52;;;;;;;;;;4888032;28;99268;-78
2023/04/17 00:39:05;;;;;;;36.85;24.02;;;;;;;;;;4889318;28;100478;-78
2023/04/17 00:41:31;;;;;;;39.88;25.50;;;;;;;;;;4888663;28;99521;-78
2023/04/17 00:43:58;;;;;;;52.75;29.38;;;;;;;;;;4888388;28;99156;-78
2023/04/17 00:46:24;;;;;;;42.83;27.40;;;;;;;;;;4891933;28;98962;-78
2023/04/17 00:48:51;;;;;;;46.33;28.30;;;;;;;;;;4887116;28;99377;-78
2023/04/17 00:51:17;;;;;;;48.88;28.83;;;;;;;;;;4888061;28;99035;-78
2023/04/17 00:53:44;;;;;;;45.15;26.73;;;;;;;;;;4888612;28;98959;-78
2023/04/17 00:56:11;;;;;;;38.88;25.30;;;;;;;;;;4889083;28;99777;-77
2023/04/17 00:58:37;;;;;;;41.35;25.20;;;;;;;;;;4885822;28;100177;-78
2023/04/17 01:01:04;;;;;;;28.27;22.02;;;;;;;;;;4888849;28;99841;-78
2023/04/17 01:03:31;;;;;;;31.10;21.67;;;;;;;;;;4886316;28;102529;-78
2023/04/17 01:05:58;;;;;;;29.52;22.17;;;;;;;;;;4887933;28;99953;-78
2023/04/17 01:08:25;;;;;;;30.55;22.52;;;;;;;;;;4889875;28;101030;-79
2023/04/17 01:10:51;;;;;;;31.92;22.45;;;;;;;;;;4890351;28;98845;-80
2023/04/17 01:13:18;;;;;;;27.58;20.40;;;;;;;;;;4887610;28;101282;-79
2023/04/17 01:15:45;;;;;;;32.75;22.58;;;;;;;;;;4892902;28;101635;-78
2023/04/17 01:18:12;;;;;;;26.40;18.75;;;;;;;;;;4890608;28;99018;-78
2023/04/17 01:20:38;;;;;;;24.17;15.82;;;;;;;;;;4889365;28;99006;-79
2023/04/17 01:23:05;;;;;;;21.92;18.05;;;;;;;;;;4890547;28;100291;-79
2023/04/17 01:25:32;;;;;;;29.15;20.88;;;;;;;;;;4892796;28;101169;-79
2023/04/17 01:27:58;;;;;;;28.50;20.60;;;;;;;;;;4894166;28;101085;-79
2023/04/17 01:30:27;;;;;;;28.27;21.42;;;;;;;;;;4897597;28;100269;-78
2023/04/17 01:33:00;;;;;;;26.05;18.73;;;;;;;;;;4884462;28;101408;-78
2023/04/17 01:35:27;;;;;;;29.38;20.02;;;;;;;;;;4886699;28;101178;-79
2023/04/17 01:37:54;;;;;;;26.23;18.73;;;;;;;;;;4889976;28;98978;-80
2023/04/17 01:40:20;;;;;;;26.00;17.88;;;;;;;;;;4887899;28;100143;-81
2023/04/17 01:42:47;;;;;;;23.95;17.90;;;;;;;;;;4885349;28;99439;-79
2023/04/17 01:45:14;;;;;;;24.42;18.20;;;;;;;;;;4888037;28;100261;-80
2023/04/17 01:47:40;;;;;;;22.20;15.85;;;;;;;;;;4886539;28;98724;-79
2023/04/17 01:50:10;;;;;;;28.08;19.58;;;;;;;;;;4887765;28;101719;-80
2023/04/17 01:52:36;;;;;;;27.20;17.33;;;;;;;;;;4890201;28;100678;-79
2023/04/17 01:55:03;;;;;;;26.95;20.02;;;;;;;;;;4887462;28;99779;-79
2023/04/17 01:57:30;;;;;;;25.88;18.92;;;;;;;;;;4883084;28;100301;-79
2023/04/17 01:59:56;;;;;;;24.25;19.60;;;;;;;;;;4901477;28;100320;-80
2023/04/17 02:02:23;;;;;;;27.38;19.30;;;;;;;;;;4885730;28;101829;-79
2023/04/17 02:04:49;;;;;;;30.27;20.40;;;;;;;;;;4887981;28;100891;-79
2023/04/17 02:07:16;;;;;;;34.88;21.38;;;;;;;;;;4887611;28;99857;-80
2023/04/17 02:09:42;;;;;;;28.50;20.30;;;;;;;;;;4886267;28;99966;-80
2023/04/17 02:12:09;;;;;;;27.58;21.10;;;;;;;;;;4888846;28;98973;-80
2023/04/17 02:14:35;;;;;;;30.30;21.40;;;;;;;;;;4892317;28;99331;-79
2023/04/17 02:17:02;;;;;;;31.70;20.88;;;;;;;;;;4889282;28;101941;-79
2023/04/17 02:19:31;;;;;;;31.90;20.88;;;;;;;;;;4890549;28;100607;-79
2023/04/17 02:22:01;;;;;;;26.95;19.90;;;;;;;;;;4886992;28;101270;-79
2023/04/17 02:24:29;;;;;;;26.83;19.80;;;;;;;;;;4890852;28;98727;-78
2023/04/17 02:26:58;;;;;;;24.85;18.58;;;;;;;;;;4889742;28;99270;-79
2023/04/17 02:29:25;;;;;;;25.42;19.52;;;;;;;;;;4888100;28;102287;-78
2023/04/17 02:31:51;;;;;;;26.38;18.80;;;;;;;;;;4887747;28;99812;-79
2023/04/17 02:34:18;;;;;;;24.77;19.40;;;;;;;;;;4891157;28;99452;-79
2023/04/17 02:36:48;;;;;;;26.35;21.00;;;;;;;;;;4892296;28;101474;-79
2023/04/17 02:39:17;;;;;;;25.42;19.25;;;;;;;;;;4888787;28;101137;-79
2023/04/17 02:41:43;;;;;;;26.75;19.88;;;;;;;;;;4890346;28;101113;-79
2023/04/17 02:44:10;;;;;;;31.10;19.92;;;;;;;;;;4888540;28;99732;-79
2023/04/17 02:46:36;;;;;;;30.40;21.85;;;;;;;;;;4887690;28;100123;-79
2023/04/17 02:49:03;;;;;;;30.85;22.08;;;;;;;;;;4888910;28;102245;-79
2023/04/17 02:51:29;;;;;;;33.13;22.63;;;;;;;;;;4889615;28;99957;-79
2023/04/17 02:53:56;;;;;;;32.72;21.92;;;;;;;;;;4888666;28;101003;-79
2023/04/17 02:56:22;;;;;;;27.83;21.02;;;;;;;;;;4892660;28;99827;-78
2023/04/17 02:58:49;;;;;;;33.63;23.38;;;;;;;;;;4888992;28;100042;-78
2023/04/17 03:01:15;;;;;;;30.23;22.25;;;;;;;;;;4890013;28;99261;-79
2023/04/17 03:03:44;;;;;;;30.58;23.92;;;;;;;;;;4887149;28;99919;-79
2023/04/17 03:06:12;;;;;;;28.52;22.58;;;;;;;;;;4887685;28;102078;-79
2023/04/17 03:08:39;;;;;;;35.15;24.40;;;;;;;;;;4888696;28;100482;-79
2023/04/17 03:11:05;;;;;;;38.20;23.15;;;;;;;;;;4888039;28;100953;-79
2023/04/17 03:13:38;;;;;;;35.78;24.55;;;;;;;;;;4890132;28;98885;-79
2023/04/17 03:16:04;;;;;;;29.85;23.20;;;;;;;;;;4889092;28;102155;-79
2023/04/17 03:18:34;;;;;;;36.40;24.80;;;;;;;;;;4886797;28;101465;-79
2023/04/17 03:21:01;;;;;;;34.83;24.40;;;;;;;;;;4890506;28;101403;-79
2023/04/17 03:23:27;;;;;;;38.60;25.95;;;;;;;;;;4898656;28;98767;-79
2023/04/17 03:25:54;;;;;;;36.33;25.05;;;;;;;;;;4898751;28;99434;-79
2023/04/17 03:28:22;;;;;;;41.13;26.23;;;;;;;;;;4899577;28;98649;-80
2023/04/17 03:30:49;;;;;;;36.40;24.15;;;;;;;;;;4896706;28;101921;-79
2023/04/17 03:33:16;;;;;;;42.03;26.02;;;;;;;;;;4894817;28;100931;-79
2023/04/17 03:35:45;;;;;;;39.95;24.02;;;;;;;;;;4894233;28;100146;-79
2023/04/17 03:38:11;;;;;;;35.78;25.02;;;;;;;;;;4893894;28;98836;-79
2023/04/17 03:40:37;;;;;;;25.80;18.75;;;;;;;;;;4909547;28;100972;-79
2023/04/17 03:43:05;;;;;;;32.72;21.83;;;;;;;;;;4890008;28;99944;-79
2023/04/17 03:45:31;;;;;;;32.40;23.17;;;;;;;;;;4888157;28;101767;-80
2023/04/17 03:47:59;;;;;;;34.17;24.02;;;;;;;;;;4884842;28;100627;-80
2023/04/17 03:50:28;;;;;;;34.40;26.15;;;;;;;;;;4884368;28;100611;-79
2023/04/17 03:52:57;;;;;;;30.98;23.35;;;;;;;;;;4886916;28;101328;-79
2023/04/17 03:55:27;;;;;;;34.47;24.35;;;;;;;;;;4885656;28;100853;-79
2023/04/17 03:57:54;;;;;;;30.73;22.30;;;;;;;;;;4887966;28;101076;-79
2023/04/17 04:00:22;;;;;;;31.65;24.85;;;;;;;;;;4888327;28;100302;-79
2023/04/17 04:02:53;;;;;;;37.55;23.58;;;;;;;;;;4891300;28;101602;-79
2023/04/17 04:05:25;;;;;;;42.22;26.92;;;;;;;;;;4887676;28;101694;-79
2023/04/17 04:07:52;;;;;;;38.13;24.70;;;;;;;;;;4882178;28;101873;-79
2023/04/17 04:10:25;;;;;;;38.00;24.88;;;;;;;;;;4884938;28;101825;-78
2023/04/17 04:12:53;;;;;;;40.22;27.88;;;;;;;;;;4888418;28;99177;-79
2023/04/17 04:15:20;;;;;;;34.45;23.67;;;;;;;;;;4884119;28;100140;-79
2023/04/17 04:17:52;;;;;;;38.33;26.03;;;;;;;;;;4880478;28;99550;-80
2023/04/17 04:20:21;;;;;;;42.05;27.88;;;;;;;;;;4887157;28;101684;-79
2023/04/17 04:22:52;;;;;;;33.08;22.52;;;;;;;;;;4879945;28;101271;-80
2023/04/17 04:25:21;;;;;;;39.38;25.77;;;;;;;;;;4891315;28;101994;-79
2023/04/17 04:28:01;;;;;;;27.00;17.75;;;;;;;;;;4882065;28;101697;-79
2023/04/17 04:30:29;;;;;;;34.92;24.92;;;;;;;;;;4887032;28;101543;-79
2023/04/17 04:33:07;;;;;;;39.55;26.73;;;;;;;;;;4878880;28;100135;-79
2023/04/17 04:35:34;;;;;;;42.25;27.52;;;;;;;;;;4883844;28;101927;-80
2023/04/17 04:38:00;;;;;;;39.45;24.83;;;;;;;;;;4887229;28;101044;-79
2023/04/17 04:40:36;;;;;;;37.78;26.40;;;;;;;;;;4885988;28;101148;-79
2023/04/17 04:43:04;;;;;;;39.30;25.50;;;;;;;;;;4886724;28;101597;-79
2023/04/17 04:45:37;;;;;;;47.17;28.30;;;;;;;;;;4886216;28;100905;-79
2023/04/17 04:48:04;;;;;;;38.50;25.58;;;;;;;;;;4906611;28;101605;-79
2023/04/17 04:50:31;;;;;;;41.67;28.58;;;;;;;;;;4887775;28;99845;-80
2023/04/17 04:52:57;;;;;;;40.58;27.58;;;;;;;;;;4881767;28;99004;-80
2023/04/17 04:55:35;;;;;;;37.85;26.60;;;;;;;;;;4884707;28;101698;-79
2023/04/17 04:58:03;;;;;;;40.38;25.15;;;;;;;;;;4885540;28;101369;-79
2023/04/17 05:00:29;;;;;;;41.00;28.25;;;;;;;;;;4887060;28;100130;-79
2023/04/17 05:02:57;;;;;;;41.88;27.13;;;;;;;;;;4903344;28;101275;-79
2023/04/17 05:05:25;;;;;;;49.00;31.92;;;;;;;;;;4886100;28;99166;-79
2023/04/17 05:07:53;;;;;;;41.33;28.75;;;;;;;;;;4905003;28;101373;-78
2023/04/17 05:10:23;;;;;;;43.65;27.63;;;;;;;;;;4884993;28;101759;-79
2023/04/17 05:12:55;;;;;;;51.83;31.77;;;;;;;;;;4900355;28;102502;-79
2023/04/17 05:15:22;;;;;;;40.72;25.67;;;;;;;;;;4888280;28;99179;-79
2023/04/17 05:17:48;;;;;;;49.65;30.58;;;;;;;;;;4886272;28;101800;-79
2023/04/17 05:20:16;;;;;;;53.80;30.48;;;;;;;;;;4886660;28;101739;-79
2023/04/17 05:22:49;;;;;;;39.08;25.80;;;;;;;;;;4885874;28;99316;-78
2023/04/17 05:25:15;;;;;;;38.13;25.70;;;;;;;;;;4887485;28;98928;-79
2023/04/17 05:27:42;;;;;;;42.60;25.60;;;;;;;;;;4885500;28;101594;-79
2023/04/17 05:30:11;;;;;;;45.38;27.58;;;;;;;;;;4898734;28;101967;-80
2023/04/17 05:32:38;;;;;;;45.55;29.55;;;;;;;;;;4888028;28;99239;-79
2023/04/17 05:35:20;;;;;;;46.58;26.45;;;;;;;;;;4888089;28;102225;-81
2023/04/17 05:37:48;;;;;;;38.47;24.58;;;;;;;;;;4887316;28;99974;-80
2023/04/17 05:40:15;;;;;;;49.85;29.08;;;;;;;;;;4885153;28;100183;-80
2023/04/17 05:42:41;;;;;;;58.45;29.98;;;;;;;;;;4887313;28;99215;-80
2023/04/17 05:45:11;;;;;;;51.55;30.77;;;;;;;;;;4901994;28;101153;-80
2023/04/17 05:47:37;;;;;;;51.30;29.85;;;;;;;;;;4888148;28;99127;-80
2023/04/17 05:50:05;;;;;;;47.88;30.33;;;;;;;;;;4889147;28;102322;-80
2023/04/17 05:52:32;;;;;;;53.00;30.58;;;;;;;;;;4893478;28;99285;-79
2023/04/17 05:54:59;;;;;;;49.05;29.40;;;;;;;;;;4889152;28;101780;-80
2023/04/17 05:57:27;;;;;;;45.47;29.48;;;;;;;;;;4889965;28;101354;-80
2023/04/17 05:59:54;;;;;;;57.10;31.10;;;;;;;;;;4883973;28;99705;-80
2023/04/17 06:02:21;;;;;;;50.95;30.55;;;;;;;;;;4889481;28;101076;-79
2023/04/17 06:04:47;;;;;;;49.88;31.25;;;;;;;;;;4889809;28;101373;-80
2023/04/17 06:07:15;;;;;;;47.03;29.73;;;;;;;;;;4893943;28;101662;-79
2023/04/17 06:09:41;;;;;;;53.33;30.98;;;;;;;;;;4891416;28;99177;-80
2023/04/17 06:12:14;;;;;;;46.50;27.80;;;;;;;;;;4891075;28;99323;-79
2023/04/17 06:14:42;;;;;;;47.28;27.88;;;;;;;;;;4889249;28;101578;-80
2023/04/17 06:17:11;;;;;;;48.83;31.15;;;;;;;;;;4904611;28;101330;-79
2023/04/17 06:19:37;;;;;;;39.92;23.45;;;;;;;;;;4887976;28;102118;-78
2023/04/17 06:22:05;;;;;;;48.25;28.40;;;;;;;;;;4888312;28;101579;-79
2023/04/17 06:24:32;;;;;;;55.88;31.35;;;;;;;;;;4888393;28;100454;-79
2023/04/17 06:26:58;;;;;;;46.63;32.08;;;;;;;;;;4890050;28;99728;-78
2023/04/17 06:29:25;;;;;;;53.13;31.88;;;;;;;;;;4902357;28;101662;-79
2023/04/17 06:31:51;;;;;;;52.00;31.00;;;;;;;;;;4889089;28;101362;-78
2023/04/17 06:34:19;;;;;;;57.83;33.22;;;;;;;;;;4892410;28;101077;-78
2023/04/17 06:36:46;;;;;;;68.20;34.92;;;;;;;;;;4907590;28;101590;-80
2023/04/17 06:39:15;;;;;;;53.92;30.23;;;;;;;;;;4913422;28;101312;-79
2023/04/17 06:41:42;;;;;;;60.45;32.90;;;;;;;;;;4908659;28;98269;-79
2023/04/17 06:44:10;;;;;;;63.03;35.20;;;;;;;;;;4902348;28;100945;-79
2023/04/17 06:46:44;;;;;;;60.30;34.65;;;;;;;;;;4892789;28;101690;-79
2023/04/17 06:49:10;;;;;;;59.45;31.83;;;;;;;;;;4899575;28;100930;-79
2023/04/17 06:51:37;;;;;;;66.18;34.83;;;;;;;;;;4915123;28;99658;-78
2023/04/17 06:54:04;;;;;;;59.70;34.47;;;;;;;;;;4904066;28;100685;-77
2023/04/17 06:56:30;;;;;;;63.45;35.15;;;;;;;;;;4901523;28;99585;-79
2023/04/17 06:58:57;;;;;;;60.17;34.35;;;;;;;;;;4893223;28;98535;-79
2023/04/17 07:01:23;;;;;;;44.90;25.45;;;;;;;;;;4890420;28;100351;-77
2023/04/17 07:03:50;;;;;;;52.35;28.95;;;;;;;;;;4891081;28;99964;-78
2023/04/17 07:06:18;;;;;;;46.15;28.60;;;;;;;;;;4890785;28;100180;-78
2023/04/17 07:08:44;;;;;;;50.60;30.08;;;;;;;;;;4889733;28;100457;-78
2023/04/17 07:11:11;;;;;;;49.00;31.00;;;;;;;;;;4887900;28;100251;-78
2023/04/17 07:13:37;;;;;;;47.35;28.73;;;;;;;;;;4888469;28;101127;-78
2023/04/17 07:16:04;;;;;;;50.35;30.70;;;;;;;;;;4890907;28;99408;-79
2023/04/17 07:18:31;;;;;;;50.90;29.85;;;;;;;;;;4894816;28;100428;-80
2023/04/17 07:20:57;;;;;;;45.90;27.15;;;;;;;;;;4891305;28;99364;-83
2023/04/17 07:23:24;;;;;;;46.38;29.30;;;;;;;;;;4888529;28;100684;-79
2023/04/17 07:25:50;;;;;;;52.45;28.45;;;;;;;;;;4891446;28;100054;-79
2023/04/17 07:28:17;;;;;;;40.65;26.02;;;;;;;;;;4890630;28;100217;-78
2023/04/17 07:30:44;;;;;;;45.38;27.48;;;;;;;;;;4895410;28;99050;-79
2023/04/17 07:33:11;;;;;;;47.55;26.92;;;;;;;;;;4901390;28;98607;-78
2023/04/17 07:35:37;;;;;;;37.72;25.33;;;;;;;;;;4902694;28;98533;-79
2023/04/17 07:38:04;;;;;;;31.90;21.10;;;;;;;;;;4895021;28;99419;-78
2023/04/17 07:40:32;;;;;;;44.05;26.60;;;;;;;;;;4890567;28;99801;-79
2023/04/17 07:42:58;;;;;;;37.20;23.33;;;;;;;;;;4889649;28;100262;-79
2023/04/17 07:45:26;;;;;;;37.65;24.50;;;;;;;;;;4888218;28;99261;-80
2023/04/17 07:47:55;;;;;;;37.72;25.80;;;;;;;;;;4881850;28;100616;-79
2023/04/17 07:50:22;;;;;;;40.17;24.38;;;;;;;;;;4890693;28;98905;-80
2023/04/17 07:52:49;;;;;;;38.28;26.33;;;;;;;;;;4890253;28;100067;-80
2023/04/17 07:55:15;;;;;;;40.90;26.38;;;;;;;;;;4888394;28;98986;-79
2023/04/17 07:57:42;;;;;;;39.58;25.63;;;;;;;;;;4885666;28;100316;-80
2023/04/17 08:00:10;;;;;;;33.17;22.83;;;;;;;;;;4887146;28;99854;-78
2023/04/17 08:02:40;;;;;;;38.50;25.20;;;;;;;;;;4891742;28;102203;-79
2023/04/17 08:05:08;;;;;;;41.13;25.52;;;;;;;;;;4887290;28;100420;-79
2023/04/17 08:07:37;;;;;;;35.65;25.23;;;;;;;;;;4890306;28;100266;-80
2023/04/17 08:10:04;;;;;;;33.45;22.50;;;;;;;;;;4885845;28;99929;-80
2023/04/17 08:12:32;;;;;;;38.00;25.85;;;;;;;;;;4886039;28;100535;-80
2023/04/17 08:14:58;;;;;;;39.20;24.38;;;;;;;;;;4894289;28;100351;-79
2023/04/17 08:17:28;;;;;;;36.35;24.58;;;;;;;;;;4895795;28;100673;-80
2023/04/17 08:19:56;;;;;;;32.35;23.77;;;;;;;;;;4896498;28;99857;-80
2023/04/17 08:22:24;;;;;;;35.90;25.73;;;;;;;;;;4896902;28;101091;-79
2023/04/17 08:24:56;;;;;;;34.33;26.23;;;;;;;;;;4900213;28;99974;-79
2023/04/17 08:27:23;;;;;;;33.72;22.20;;;;;;;;;;4889055;28;100158;-80
2023/04/17 08:29:52;;;;;;;37.67;24.70;;;;;;;;;;4902736;28;100266;-80
2023/04/17 08:32:20;;;;;;;36.80;25.30;;;;;;;;;;4894564;28;100270;-80
2023/04/17 08:34:46;;;;;;;33.15;24.48;;;;;;;;;;4894487;28;100221;-80
2023/04/17 08:37:13;;;;;;;37.35;24.38;;;;;;;;;;4889398;28;100636;-80
2023/04/17 08:39:39;;;;;;;32.20;24.52;;;;;;;;;;4891883;28;99685;-79
2023/04/17 08:42:06;;;;;;;32.03;22.63;;;;;;;;;;4885999;28;100294;-78
2023/04/17 08:44:33;;;;;;;36.08;22.70;;;;;;;;;;4891175;28;100149;-79
2023/04/17 08:46:59;;;;;;;31.33;22.98;;;;;;;;;;4893521;28;100135;-79
2023/04/17 08:49:30;;;;;;;33.63;23.85;;;;;;;;;;4890504;28;99150;-78
2023/04/17 08:51:56;;;;;;;30.00;22.30;;;;;;;;;;4890634;28;100115;-78
2023/04/17 08:54:22;;;;;;;33.80;22.52;;;;;;;;;;4893420;28;99600;-79
2023/04/17 08:56:49;;;;;;;35.00;23.83;;;;;;;;;;4887479;28;100014;-79
2023/04/17 08:59:16;;;;;;;29.35;23.30;;;;;;;;;;4884486;28;100253;-79
2023/04/17 09:02:02;;;;;;;35.80;24.60;;;;;;;;;;4886897;28;100260;-79
2023/04/17 09:04:41;;;;;;;30.40;22.30;;;;;;;;;;4885829;28;100649;-78
2023/04/17 09:07:09;;;;;;;33.58;23.08;;;;;;;;;;4891073;28;100260;-78
2023/04/17 09:09:49;;;;;;;30.13;23.13;;;;;;;;;;4886269;28;100306;-78
2023/04/17 09:12:16;;;;;;;34.72;23.10;;;;;;;;;;4887999;28;101032;-79
2023/04/17 09:14:43;;;;;;;27.05;21.85;;;;;;;;;;4886101;28;100121;-79
2023/04/17 09:17:09;;;;;;;28.95;22.08;;;;;;;;;;4891015;28;100006;-78
2023/04/17 09:19:36;;;;;;;22.27;18.30;;;;;;;;;;4890665;28;101303;-79
2023/04/17 09:22:32;;;;;;;24.85;20.77;;;;;;;;;;4892694;28;100294;-80
2023/04/17 09:24:58;;;;;;;28.42;22.25;;;;;;;;;;4889697;28;100523;-79
2023/04/17 09:27:25;;;;;;;28.40;21.90;;;;;;;;;;4893858;28;100234;-79
2023/04/17 09:30:02;;;;;;;27.35;22.92;;;;;;;;;;4894853;28;100285;-79
2023/04/17 09:32:30;;;;;;;32.42;22.45;;;;;;;;;;4897050;28;100244;-80
2023/04/17 09:34:58;;;;;;;27.63;20.20;;;;;;;;;;4899218;28;98666;-77
2023/04/17 09:37:26;;;;;;;29.48;22.27;;;;;;;;;;4898229;28;98812;-77
2023/04/17 09:40:00;;;;;;;24.15;18.05;;;;;;;;;;4902363;28;99936;-79
2023/04/17 09:42:29;;;;;;;28.17;21.13;;;;;;;;;;4890639;28;101514;-79
2023/04/17 09:44:56;;;;;;;26.10;19.85;;;;;;;;;;4903837;28;100595;-79
2023/04/17 09:47:23;;;;;;;26.42;19.23;;;;;;;;;;4896168;28;100619;-79
2023/04/17 09:49:54;;;;;;;26.63;22.50;;;;;;;;;;4903684;28;99680;-78
2023/04/17 09:52:22;;;;;;;33.42;21.42;;;;;;;;;;4900970;28;99999;-80
2023/04/17 09:54:52;;;;;;;25.80;22.65;;;;;;;;;;4886899;28;101054;-79
2023/04/17 09:57:19;;;;;;;25.45;20.88;;;;;;;;;;4887915;28;99980;-79
2023/04/17 09:59:49;;;;;;;29.17;21.13;;;;;;;;;;4889137;28;100845;-79
2023/04/17 10:02:16;;;;;;;28.25;23.50;;;;;;;;;;4887981;28;100593;-79
2023/04/17 10:04:44;;;;;;;27.67;21.40;;;;;;;;;;4881967;28;100183;-80
2023/04/17 10:07:11;;;;;;;30.27;22.83;;;;;;;;;;4882561;28;100142;-79
2023/04/17 10:09:40;;;;;;;27.67;22.23;;;;;;;;;;4892253;28;100269;-81
2023/04/17 10:12:14;;;;;;;27.35;20.08;;;;;;;;;;4888087;28;100259;-78
2023/04/17 10:14:45;;;;;;;27.10;20.67;;;;;;;;;;4893351;28;98962;-76
2023/04/17 10:17:27;;;;;;;31.70;22.70;;;;;;;;;;4884399;28;100126;-79
2023/04/17 10:19:54;;;;;;;27.83;22.67;;;;;;;;;;4888315;28;100329;-80
2023/04/17 10:22:22;;;;;;;32.35;23.13;;;;;;;;;;4889068;28;100382;-80
2023/04/17 10:25:12;;;;;;;33.95;22.77;;;;;;;;;;4902002;28;99239;-80
2023/04/17 10:27:41;;;;;;;26.08;19.23;;;;;;;;;;4895569;28;98933;-80
2023/04/17 10:30:09;;;;;;;32.05;23.30;;;;;;;;;;4890848;28;100406;-80
2023/04/17 10:32:35;;;;;;;38.28;23.10;;;;;;;;;;4895343;28;100949;-80
2023/04/17 10:35:18;;;;;;;33.90;20.63;;;;;;;;;;4893134;28;100779;-80
2023/04/17 10:37:50;;;;;;;27.85;21.63;;;;;;;;;;4887252;28;100680;-82
2023/04/17 10:40:19;;;;;;;33.10;22.80;;;;;;;;;;4890763;28;100323;-80
2023/04/17 10:43:02;;;;;;;28.67;23.27;;;;;;;;;;4881848;28;100526;-80
2023/04/17 10:45:47;;;;;;;28.25;23.38;;;;;;;;;;4890539;28;99687;-83
2023/04/17 10:48:31;;;;;;;31.10;20.48;;;;;;;;;;4888240;28;100114;-82
2023/04/17 10:50:59;;;;;;;28.63;21.40;;;;;;;;;;4899481;28;101450;-79
2023/04/17 10:53:42;;;;;;;28.63;22.65;;;;;;;;;;4889821;28;100196;-82
2023/04/17 10:56:09;;;;;;;32.45;21.05;;;;;;;;;;4893357;28;100261;-82
2023/04/17 10:58:37;;;;;;;25.35;19.23;;;;;;;;;;4897416;28;101249;-82
2023/04/17 11:01:08;;;;;;;26.70;22.83;;;;;;;;;;4896574;28;100099;-81
2023/04/17 11:03:36;;;;;;;31.98;22.38;;;;;;;;;;4885680;28;100425;-81
2023/04/17 11:06:03;;;;;;;29.50;22.00;;;;;;;;;;4888695;28;100407;-82
2023/04/17 11:08:29;;;;;;;25.48;21.60;;;;;;;;;;4890814;28;100072;-81
2023/04/17 11:10:56;;;;;;;29.88;20.58;;;;;;;;;;4889352;28;100238;-82
2023/04/17 11:13:22;;;;;;;35.90;22.30;;;;;;;;;;4889032;28;99973;-82
2023/04/17 11:15:49;;;;;;;28.08;21.50;;;;;;;;;;4892106;28;100697;-83
2023/04/17 11:18:15;;;;;;;31.65;21.40;;;;;;;;;;4890695;28;100700;-82
2023/04/17 11:20:42;;;;;;;25.33;18.50;;;;;;;;;;4893063;28;100039;-81
2023/04/17 11:23:08;;;;;;;24.88;20.13;;;;;;;;;;4888511;28;100879;-82
2023/04/17 11:25:36;;;;;;;22.83;17.63;;;;;;;;;;4889519;28;99956;-82
2023/04/17 11:28:04;;;;;;;29.38;19.83;;;;;;;;;;4895971;28;99428;-82
2023/04/17 11:30:31;;;;;;;26.77;18.40;;;;;;;;;;4889753;28;100450;-81
2023/04/17 11:33:02;;;;;;;20.65;16.70;;;;;;;;;;4890790;28;99518;-82
2023/04/17 11:35:29;;;;;;;22.48;20.02;;;;;;;;;;4890846;28;100371;-82
2023/04/17 11:38:10;;;;;;;22.75;17.00;;;;;;;;;;4893144;28;99373;-82
2023/04/17 11:40:43;;;;;;;19.73;17.58;;;;;;;;;;4885307;28;99832;-80
2023/04/17 11:43:10;;;;;;;18.45;16.48;;;;;;;;;;4885596;28;99336;-81
2023/04/17 11:45:38;;;;;;;29.98;18.52;;;;;;;;;;4886878;28;100114;-81
2023/04/17 11:48:04;;;;;;;19.58;17.45;;;;;;;;;;4889904;28;100906;-80
2023/04/17 11:50:31;;;;;;;23.85;19.20;;;;;;;;;;4889208;28;100113;-81
2023/04/17 11:53:01;;;;;;;23.77;17.83;;;;;;;;;;4880755;28;100195;-80
2023/04/17 11:55:30;;;;;;;22.83;18.38;;;;;;;;;;4885678;28;100332;-80
2023/04/17 11:57:58;;;;;;;22.30;17.73;;;;;;;;;;4886901;28;100205;-80
2023/04/17 12:00:28;;;;;;;22.83;15.90;;;;;;;;;;4887361;28;99778;-81
2023/04/17 12:02:56;;;;;;;19.83;17.40;;;;;;;;;;4889362;28;99755;-81
2023/04/17 12:05:23;;;;;;;20.50;15.65;;;;;;;;;;4893169;28;98606;-78
2023/04/17 12:08:00;;;;;;;20.83;17.85;;;;;;;;;;4889389;28;100077;-81
2023/04/17 12:10:36;;;;;;;21.25;15.80;;;;;;;;;;4890660;28;99971;-81
2023/04/17 12:13:03;;;;;;;16.77;13.73;;;;;;;;;;4889079;28;100139;-83
2023/04/17 12:15:29;;;;;;;20.30;15.07;;;;;;;;;;4892819;28;100991;-81
2023/04/17 12:17:56;;;;;;;23.02;17.73;;;;;;;;;;4887554;28;100103;-81
2023/04/17 12:20:22;;;;;;;21.15;16.35;;;;;;;;;;4889118;28;100014;-84
2023/04/17 12:22:51;;;;;;;14.68;12.65;;;;;;;;;;4895640;28;100048;-82
2023/04/17 12:25:18;;;;;;;17.90;14.65;;;;;;;;;;4890424;28;100292;-83
2023/04/17 12:27:45;;;;;;;16.38;14.45;;;;;;;;;;4898764;28;100180;-82
2023/04/17 12:30:14;;;;;;;18.45;14.73;;;;;;;;;;4895864;28;99513;-84
2023/04/17 12:32:44;;;;;;;17.77;15.88;;;;;;;;;;4900699;28;98944;-83
2023/04/17 12:35:11;;;;;;;18.23;15.50;;;;;;;;;;4899513;28;99216;-83
2023/04/17 12:37:37;;;;;;;18.15;14.55;;;;;;;;;;4889595;28;101334;-81
2023/04/17 12:40:04;;;;;;;17.10;14.25;;;;;;;;;;4894152;28;100685;-82
2023/04/17 12:42:31;;;;;;;15.25;13.40;;;;;;;;;;4899156;28;100574;-80
2023/04/17 12:45:12;;;;;;;19.45;13.80;;;;;;;;;;4887895;28;100101;-81
2023/04/17 12:47:38;;;;;;;18.92;15.40;;;;;;;;;;4887380;28;100537;-79
2023/04/17 12:50:05;;;;;;;19.80;15.02;;;;;;;;;;4894615;28;99857;-82
2023/04/17 12:52:32;;;;;;;13.27;11.93;;;;;;;;;;4888635;28;99125;-82
2023/04/17 12:54:58;;;;;;;19.90;14.65;;;;;;;;;;4890203;28;99414;-82
2023/04/17 12:57:26;;;;;;;12.32;10.48;;;;;;;;;;4878925;28;100462;-83
2023/04/17 12:59:52;;;;;;;15.07;13.48;;;;;;;;;;4888844;28;99901;-82
2023/04/17 13:02:20;;;;;;;14.63;13.13;;;;;;;;;;4880171;28;100013;-83
2023/04/17 13:04:46;;;;;;;15.80;14.10;;;;;;;;;;4888851;28;100342;-82
2023/04/17 13:07:13;;;;;;;18.35;13.85;;;;;;;;;;4887161;28;99886;-83
2023/04/17 13:09:39;;;;;;;20.73;14.32;;;;;;;;;;4886875;28;100423;-82
2023/04/17 13:12:06;;;;;;;15.10;12.90;;;;;;;;;;4893872;28;99678;-81
2023/04/17 13:14:32;;;;;;;17.25;12.60;;;;;;;;;;4888157;28;99900;-82
2023/04/17 13:16:59;;;;;;;21.13;13.43;;;;;;;;;;4890141;28;100676;-81
2023/04/17 13:19:25;;;;;;;15.27;13.30;;;;;;;;;;4888848;28;99051;-84
2023/04/17 13:21:51;;;;;;;14.30;11.45;;;;;;;;;;4888303;28;98995;-81
2023/04/17 13:24:18;;;;;;;18.25;12.65;;;;;;;;;;4886465;28;100555;-83
2023/04/17 13:26:44;;;;;;;13.73;10.82;;;;;;;;;;4883580;28;99350;-81
2023/04/17 13:29:11;;;;;;;16.75;12.45;;;;;;;;;;4888114;28;99963;-81
2023/04/17 13:31:38;;;;;;;14.40;11.95;;;;;;;;;;4888892;28;99773;-82
2023/04/17 13:34:04;;;;;;;14.18;12.63;;;;;;;;;;4887350;28;99376;-79
2023/04/17 13:36:31;;;;;;;15.18;11.85;;;;;;;;;;4887218;28;100406;-79
2023/04/17 13:38:57;;;;;;;12.82;11.73;;;;;;;;;;4885404;28;100009;-82
2023/04/17 13:41:24;;;;;;;12.38;10.93;;;;;;;;;;4887804;28;100008;-85
2023/04/17 13:43:50;;;;;;;12.38;10.90;;;;;;;;;;4886527;28;99479;-86
2023/04/17 13:46:17;;;;;;;12.65;11.15;;;;;;;;;;4886320;28;100442;-84
2023/04/17 13:48:44;;;;;;;16.23;11.50;;;;;;;;;;4884511;28;99198;-86
2023/04/17 13:51:10;;;;;;;14.32;12.68;;;;;;;;;;4888715;28;101246;-85
2023/04/17 13:53:37;;;;;;;14.52;13.18;;;;;;;;;;4891214;28;100235;-82
2023/04/17 13:56:03;;;;;;;16.42;12.25;;;;;;;;;;4889573;28;100326;-82
2023/04/17 13:58:29;;;;;;;14.05;11.98;;;;;;;;;;4888666;28;99116;-84
2023/04/17 14:00:56;;;;;;;16.08;11.45;;;;;;;;;;4890476;28;100588;-84
2023/04/17 14:03:22;;;;;;;15.68;10.18;;;;;;;;;;4891218;28;100212;-82
2023/04/17 14:05:49;;;;;;;17.13;11.85;;;;;;;;;;4887150;28;100441;-83
2023/04/17 14:08:15;;;;;;;18.45;11.63;;;;;;;;;;4891224;28;98791;-83
2023/04/17 14:10:42;;;;;;;13.75;11.80;;;;;;;;;;4891847;28;100512;-82
2023/04/17 14:13:08;;;;;;;18.48;11.05;;;;;;;;;;4889406;28;100314;-83
2023/04/17 14:15:34;;;;;;;12.68;10.88;;;;;;;;;;4894225;28;99991;-82